Aviation Digital Data Service (ADDS)

Output produced by METARs form (0537 UTC 19 February 2019)
found at http://www.aviationweather.gov/metar/data/
 
Forecast for: LEGA (ARMILLA (CIV/MIL, ES)
Text: TAF LEGA 190500Z 1906/1915 VRB02KT 9999 SCT040
Forecast period: 0600 to 1500 UTC 19 February 2019
Forecast type: FROM: standard forecast or significant change
Winds: variable direction winds at 2 MPH (2 knots; 1.0 m/s)
Visibility: 6 or more miles 10+ km)
Ceiling: at least 12,000 feet AGL
Clouds: scattered clouds at 4000 feet AGL
Weather: no significant weather forecast for this period